sensor_id;sensor_type;location;lat;lon;timestamp;P1;P2;P0
14880;PMS7003;7533;51.278;12.588;2022-07-30T00:03:34;8.40;8.40;6.40
14880;PMS7003;7533;51.278;12.588;2022-07-30T00:08:37;7.00;7.00;5.00
14880;PMS7003;7533;51.278;12.588;2022-07-30T00:13:42;8.40;8.00;6.00
14880;PMS7003;7533;51.278;12.588;2022-07-30T00:18:45;8.00;8.00;4.20
14880;PMS7003;7533;51.278;12.588;2022-07-30T00:23:48;8.60;8.20;5.20
14880;PMS7003;7533;51.278;12.588;2022-07-30T00:29:04;9.60;9.00;6.00
14880;PMS7003;7533;51.278;12.588;2022-07-30T00:34:07;10.60;9.80;6.60
14880;PMS7003;7533;51.278;12.588;2022-07-30T00:39:10;8.60;8.60;5.00
14880;PMS7003;7533;51.278;12.588;2022-07-30T00:44:14;8.80;8.40;6.20
14880;PMS7003;7533;51.278;12.588;2022-07-30T00:49:18;8.40;8.40;6.60
14880;PMS7003;7533;51.278;12.588;2022-07-30T00:54:21;7.60;7.60;5.80
14880;PMS7003;7533;51.278;12.588;2022-07-30T00:59:26;9.40;7.40;6.00
14880;PMS7003;7533;51.278;12.588;2022-07-30T01:04:29;7.50;6.00;4.25
14880;PMS7003;7533;51.278;12.588;2022-07-30T01:09:32;8.75;8.75;6.00
14880;PMS7003;7533;51.278;12.588;2022-07-30T01:14:36;11.40;9.40;5.80
14880;PMS7003;7533;51.278;12.588;2022-07-30T01:19:39;9.80;9.40;5.80
14880;PMS7003;7533;51.278;12.588;2022-07-30T01:24:55;6.80;6.60;5.00
14880;PMS7003;7533;51.278;12.588;2022-07-30T01:30:09;9.40;9.00;6.00
14880;PMS7003;7533;51.278;12.588;2022-07-30T01:35:15;7.20;7.20;5.40
14880;PMS7003;7533;51.278;12.588;2022-07-30T01:40:22;8.40;8.40;6.20
14880;PMS7003;7533;51.278;12.588;2022-07-30T01:45:28;9.20;8.00;6.00
14880;PMS7003;7533;51.278;12.588;2022-07-30T01:50:44;7.80;7.80;6.00
14880;PMS7003;7533;51.278;12.588;2022-07-30T01:55:48;11.00;9.40;6.00
14880;PMS7003;7533;51.278;12.588;2022-07-30T02:00:53;9.80;9.60;6.20
14880;PMS7003;7533;51.278;12.588;2022-07-30T02:06:00;8.60;8.20;6.40
14880;PMS7003;7533;51.278;12.588;2022-07-30T02:11:06;10.80;10.60;7.40
14880;PMS7003;7533;51.278;12.588;2022-07-30T02:16:14;10.50;9.00;7.00
14880;PMS7003;7533;51.278;12.588;2022-07-30T02:21:19;10.80;9.20;7.00
14880;PMS7003;7533;51.278;12.588;2022-07-30T02:26:23;9.25;8.50;5.75
14880;PMS7003;7533;51.278;12.588;2022-07-30T02:31:30;11.40;11.40;7.40
14880;PMS7003;7533;51.278;12.588;2022-07-30T02:36:35;12.00;12.00;7.80
14880;PMS7003;7533;51.278;12.588;2022-07-30T02:41:42;10.80;8.40;6.20
14880;PMS7003;7533;51.278;12.588;2022-07-30T02:46:51;13.20;11.60;7.40
14880;PMS7003;7533;51.278;12.588;2022-07-30T02:51:57;11.20;10.60;7.80
14880;PMS7003;7533;51.278;12.588;2022-07-30T02:57:01;10.00;9.00;6.80
14880;PMS7003;7533;51.278;12.588;2022-07-30T03:02:07;12.40;11.40;7.40
14880;PMS7003;7533;51.278;12.588;2022-07-30T03:07:15;10.00;9.80;8.00
14880;PMS7003;7533;51.278;12.588;2022-07-30T03:12:18;11.00;10.60;7.20
14880;PMS7003;7533;51.278;12.588;2022-07-30T03:17:27;12.60;10.00;5.40
14880;PMS7003;7533;51.278;12.588;2022-07-30T03:22:34;11.60;11.60;8.00
14880;PMS7003;7533;51.278;12.588;2022-07-30T03:27:41;11.40;10.00;7.60
14880;PMS7003;7533;51.278;12.588;2022-07-30T03:32:46;10.80;10.40;7.40
14880;PMS7003;7533;51.278;12.588;2022-07-30T03:37:49;11.80;10.80;8.80
14880;PMS7003;7533;51.278;12.588;2022-07-30T03:42:53;12.20;10.80;9.00
14880;PMS7003;7533;51.278;12.588;2022-07-30T03:47:59;11.20;11.20;9.20
14880;PMS7003;7533;51.278;12.588;2022-07-30T03:53:07;12.80;11.80;9.00
14880;PMS7003;7533;51.278;12.588;2022-07-30T03:58:31;12.40;12.20;8.80
14880;PMS7003;7533;51.278;12.588;2022-07-30T04:03:39;11.20;11.20;8.00
14880;PMS7003;7533;51.278;12.588;2022-07-30T04:08:42;11.00;10.20;8.00
14880;PMS7003;7533;51.278;12.588;2022-07-30T04:13:45;14.00;12.20;9.00
14880;PMS7003;7533;51.278;12.588;2022-07-30T04:18:52;13.00;13.00;8.60
14880;PMS7003;7533;51.278;12.588;2022-07-30T04:23:58;11.00;10.00;7.40
14880;PMS7003;7533;51.278;12.588;2022-07-30T04:29:08;12.40;12.40;9.20
14880;PMS7003;7533;51.278;12.588;2022-07-30T04:34:20;12.20;11.20;8.20
14880;PMS7003;7533;51.278;12.588;2022-07-30T04:39:23;12.80;11.00;8.00
14880;PMS7003;7533;51.278;12.588;2022-07-30T04:44:25;11.80;11.20;8.80
14880;PMS7003;7533;51.278;12.588;2022-07-30T04:49:53;14.40;11.60;9.00
14880;PMS7003;7533;51.278;12.588;2022-07-30T04:54:58;10.80;10.40;8.00
14880;PMS7003;7533;51.278;12.588;2022-07-30T05:00:05;10.80;9.60;8.00
14880;PMS7003;7533;51.278;12.588;2022-07-30T05:05:14;15.00;13.60;9.00
14880;PMS7003;7533;51.278;12.588;2022-07-30T05:10:18;11.60;10.40;8.00
14880;PMS7003;7533;51.278;12.588;2022-07-30T05:15:21;13.80;12.80;8.00
14880;PMS7003;7533;51.278;12.588;2022-07-30T05:20:39;15.20;14.60;10.00
14880;PMS7003;7533;51.278;12.588;2022-07-30T05:26:08;11.80;11.60;8.60
14880;PMS7003;7533;51.278;12.588;2022-07-30T05:31:18;12.20;12.20;9.20
14880;PMS7003;7533;51.278;12.588;2022-07-30T05:36:29;12.00;12.00;9.00
14880;PMS7003;7533;51.278;12.588;2022-07-30T05:41:32;10.80;10.60;8.00
14880;PMS7003;7533;51.278;12.588;2022-07-30T05:46:58;16.20;12.60;9.00
14880;PMS7003;7533;51.278;12.588;2022-07-30T05:52:03;14.60;12.80;9.20
14880;PMS7003;7533;51.278;12.588;2022-07-30T05:57:06;13.40;13.40;9.80
14880;PMS7003;7533;51.278;12.588;2022-07-30T06:02:11;14.20;13.00;10.00
14880;PMS7003;7533;51.278;12.588;2022-07-30T06:07:24;11.80;11.80;8.40
14880;PMS7003;7533;51.278;12.588;2022-07-30T06:12:29;10.80;10.80;8.40
14880;PMS7003;7533;51.278;12.588;2022-07-30T06:17:32;13.00;11.00;9.00
14880;PMS7003;7533;51.278;12.588;2022-07-30T06:22:49;10.60;10.40;7.60
14880;PMS7003;7533;51.278;12.588;2022-07-30T06:28:05;13.20;11.40;8.20
14880;PMS7003;7533;51.278;12.588;2022-07-30T06:33:28;14.40;12.20;8.60
14880;PMS7003;7533;51.278;12.588;2022-07-30T06:38:33;12.40;11.80;8.60
14880;PMS7003;7533;51.278;12.588;2022-07-30T06:43:43;12.60;12.00;8.00
14880;PMS7003;7533;51.278;12.588;2022-07-30T06:49:17;11.40;11.40;8.00
14880;PMS7003;7533;51.278;12.588;2022-07-30T06:54:22;12.20;12.20;8.00
14880;PMS7003;7533;51.278;12.588;2022-07-30T06:59:35;11.20;11.20;7.40
14880;PMS7003;7533;51.278;12.588;2022-07-30T07:05:18;11.60;11.60;7.20
14880;PMS7003;7533;51.278;12.588;2022-07-30T07:10:25;10.20;9.80;7.00
14880;PMS7003;7533;51.278;12.588;2022-07-30T07:15:37;16.60;16.60;11.40
14880;PMS7003;7533;51.278;12.588;2022-07-30T07:20:44;13.60;13.60;10.00
14880;PMS7003;7533;51.278;12.588;2022-07-30T07:25:49;16.80;15.20;10.60
14880;PMS7003;7533;51.278;12.588;2022-07-30T07:30:51;17.00;14.80;10.80
14880;PMS7003;7533;51.278;12.588;2022-07-30T07:35:54;23.00;23.00;15.80
14880;PMS7003;7533;51.278;12.588;2022-07-30T07:41:03;19.40;18.40;14.20
14880;PMS7003;7533;51.278;12.588;2022-07-30T07:46:07;13.20;12.20;10.00
14880;PMS7003;7533;51.278;12.588;2022-07-30T07:51:10;18.80;18.80;14.00
14880;PMS7003;7533;51.278;12.588;2022-07-30T07:56:15;21.00;19.20;13.00
14880;PMS7003;7533;51.278;12.588;2022-07-30T08:01:18;15.60;15.60;11.00
14880;PMS7003;7533;51.278;12.588;2022-07-30T08:06:45;14.60;14.40;10.20
14880;PMS7003;7533;51.278;12.588;2022-07-30T08:12:15;13.60;13.60;10.20
14880;PMS7003;7533;51.278;12.588;2022-07-30T08:17:38;17.60;16.20;11.00
14880;PMS7003;7533;51.278;12.588;2022-07-30T08:22:46;14.60;13.60;9.00
14880;PMS7003;7533;51.278;12.588;2022-07-30T08:27:51;15.20;14.40;10.20
14880;PMS7003;7533;51.278;12.588;2022-07-30T08:32:56;12.60;12.40;9.00
14880;PMS7003;7533;51.278;12.588;2022-07-30T08:37:59;15.60;12.80;9.80
14880;PMS7003;7533;51.278;12.588;2022-07-30T08:43:05;16.00;14.20;9.00
14880;PMS7003;7533;51.278;12.588;2022-07-30T08:48:10;12.20;11.60;9.00
14880;PMS7003;7533;51.278;12.588;2022-07-30T08:53:19;14.60;13.20;10.00
14880;PMS7003;7533;51.278;12.588;2022-07-30T08:58:25;14.00;13.40;10.00
14880;PMS7003;7533;51.278;12.588;2022-07-30T09:03:30;12.40;11.20;8.80
14880;PMS7003;7533;51.278;12.588;2022-07-30T09:08:35;12.80;10.60;8.20
14880;PMS7003;7533;51.278;12.588;2022-07-30T09:13:40;14.25;14.25;10.50
14880;PMS7003;7533;51.278;12.588;2022-07-30T09:18:46;15.25;13.75;10.00
14880;PMS7003;7533;51.278;12.588;2022-07-30T09:23:56;13.00;12.75;9.00
14880;PMS7003;7533;51.278;12.588;2022-07-30T09:29:31;16.60;15.00;10.60
14880;PMS7003;7533;51.278;12.588;2022-07-30T09:34:52;15.20;14.20;10.40
14880;PMS7003;7533;51.278;12.588;2022-07-30T09:40:16;18.80;17.60;13.00
14880;PMS7003;7533;51.278;12.588;2022-07-30T09:45:49;18.40;17.80;12.20
14880;PMS7003;7533;51.278;12.588;2022-07-30T09:50:58;16.80;16.80;12.00
14880;PMS7003;7533;51.278;12.588;2022-07-30T09:56:21;17.40;17.00;11.00
14880;PMS7003;7533;51.278;12.588;2022-07-30T10:01:28;19.00;18.00;12.40
14880;PMS7003;7533;51.278;12.588;2022-07-30T10:07:20;21.00;17.80;11.80
14880;PMS7003;7533;51.278;12.588;2022-07-30T10:12:27;20.20;19.00;14.00
14880;PMS7003;7533;51.278;12.588;2022-07-30T10:17:33;19.80;18.80;14.80
14880;PMS7003;7533;51.278;12.588;2022-07-30T10:22:59;23.60;21.80;18.00
14880;PMS7003;7533;51.278;12.588;2022-07-30T10:28:09;26.40;25.00;15.80
14880;PMS7003;7533;51.278;12.588;2022-07-30T10:33:13;24.40;21.60;18.00
14880;PMS7003;7533;51.278;12.588;2022-07-30T10:38:37;24.80;24.40;18.40
14880;PMS7003;7533;51.278;12.588;2022-07-30T10:43:51;27.40;26.40;18.00
14880;PMS7003;7533;51.278;12.588;2022-07-30T10:49:10;30.20;27.80;18.00
14880;PMS7003;7533;51.278;12.588;2022-07-30T10:54:35;29.40;28.00;19.00
14880;PMS7003;7533;51.278;12.588;2022-07-30T11:05:23;30.00;28.60;19.00
14880;PMS7003;7533;51.278;12.588;2022-07-30T11:10:46;31.60;28.20;19.00
14880;PMS7003;7533;51.278;12.588;2022-07-30T11:15:53;32.00;27.00;19.00
14880;PMS7003;7533;51.278;12.588;2022-07-30T11:21:15;28.20;27.40;18.80
14880;PMS7003;7533;51.278;12.588;2022-07-30T11:31:51;32.80;28.60;19.00
14880;PMS7003;7533;51.278;12.588;2022-07-30T11:37:05;27.20;27.00;19.00
14880;PMS7003;7533;51.278;12.588;2022-07-30T11:42:23;30.80;28.60;19.00
14880;PMS7003;7533;51.278;12.588;2022-07-30T11:47:27;33.00;29.00;19.00
14880;PMS7003;7533;51.278;12.588;2022-07-30T11:52:32;25.80;25.80;17.20
14880;PMS7003;7533;51.278;12.588;2022-07-30T11:57:38;32.60;29.20;19.60
14880;PMS7003;7533;51.278;12.588;2022-07-30T12:02:41;34.20;30.40;19.60
14880;PMS7003;7533;51.278;12.588;2022-07-30T12:07:45;29.80;28.00;19.00
14880;PMS7003;7533;51.278;12.588;2022-07-30T12:12:48;29.00;29.00;19.60
14880;PMS7003;7533;51.278;12.588;2022-07-30T12:17:51;25.80;24.20;17.60
14880;PMS7003;7533;51.278;12.588;2022-07-30T12:23:15;27.20;25.60;18.20
14880;PMS7003;7533;51.278;12.588;2022-07-30T12:28:23;24.20;21.40;15.00
14880;PMS7003;7533;51.278;12.588;2022-07-30T12:33:27;27.40;25.60;17.00
14880;PMS7003;7533;51.278;12.588;2022-07-30T12:38:41;23.40;20.60;16.00
14880;PMS7003;7533;51.278;12.588;2022-07-30T12:43:46;27.60;23.60;17.60
14880;PMS7003;7533;51.278;12.588;2022-07-30T12:48:52;27.40;22.00;16.00
14880;PMS7003;7533;51.278;12.588;2022-07-30T12:54:18;23.80;23.60;18.00
14880;PMS7003;7533;51.278;12.588;2022-07-30T12:59:21;28.60;23.20;15.80
14880;PMS7003;7533;51.278;12.588;2022-07-30T13:04:26;25.20;23.20;17.00
14880;PMS7003;7533;51.278;12.588;2022-07-30T13:09:31;22.80;21.40;16.00
14880;PMS7003;7533;51.278;12.588;2022-07-30T13:14:33;23.80;21.80;16.40
14880;PMS7003;7533;51.278;12.588;2022-07-30T13:19:36;24.20;21.60;15.40
14880;PMS7003;7533;51.278;12.588;2022-07-30T13:24:40;20.60;19.80;13.80
14880;PMS7003;7533;51.278;12.588;2022-07-30T13:29:44;25.20;23.00;15.80
14880;PMS7003;7533;51.278;12.588;2022-07-30T13:34:46;21.20;20.60;14.40
14880;PMS7003;7533;51.278;12.588;2022-07-30T13:39:50;19.80;19.60;15.00
14880;PMS7003;7533;51.278;12.588;2022-07-30T13:44:53;24.60;22.80;15.00
14880;PMS7003;7533;51.278;12.588;2022-07-30T13:49:56;24.40;20.80;16.00
14880;PMS7003;7533;51.278;12.588;2022-07-30T13:55:00;18.20;17.40;13.80
14880;PMS7003;7533;51.278;12.588;2022-07-30T14:00:03;22.80;19.20;13.20
14880;PMS7003;7533;51.278;12.588;2022-07-30T14:05:08;22.00;19.60;14.80
14880;PMS7003;7533;51.278;12.588;2022-07-30T14:10:12;23.80;23.40;17.00
14880;PMS7003;7533;51.278;12.588;2022-07-30T14:15:15;28.80;23.20;17.00
14880;PMS7003;7533;51.278;12.588;2022-07-30T14:20:18;24.20;23.00;16.00
14880;PMS7003;7533;51.278;12.588;2022-07-30T14:25:23;25.60;24.00;15.60
14880;PMS7003;7533;51.278;12.588;2022-07-30T14:30:26;24.40;22.60;16.00
14880;PMS7003;7533;51.278;12.588;2022-07-30T14:35:30;26.80;25.00;17.00
14880;PMS7003;7533;51.278;12.588;2022-07-30T14:40:34;24.20;23.20;16.40
14880;PMS7003;7533;51.278;12.588;2022-07-30T14:45:37;30.00;26.40;18.20
14880;PMS7003;7533;51.278;12.588;2022-07-30T14:50:40;28.60;24.80;18.00
14880;PMS7003;7533;51.278;12.588;2022-07-30T14:56:04;26.40;25.00;17.00
14880;PMS7003;7533;51.278;12.588;2022-07-30T15:01:07;26.40;24.00;17.00
14880;PMS7003;7533;51.278;12.588;2022-07-30T15:06:17;26.40;25.60;17.20
14880;PMS7003;7533;51.278;12.588;2022-07-30T15:11:21;25.60;25.00;17.80
14880;PMS7003;7533;51.278;12.588;2022-07-30T15:16:26;26.60;26.60;18.00
14880;PMS7003;7533;51.278;12.588;2022-07-30T15:21:29;30.00;25.80;16.80
14880;PMS7003;7533;51.278;12.588;2022-07-30T15:26:33;28.00;26.60;18.00
14880;PMS7003;7533;51.278;12.588;2022-07-30T15:31:36;29.40;27.40;17.20
14880;PMS7003;7533;51.278;12.588;2022-07-30T15:36:38;26.40;24.80;17.00
14880;PMS7003;7533;51.278;12.588;2022-07-30T15:41:43;26.00;24.20;17.20
14880;PMS7003;7533;51.278;12.588;2022-07-30T15:46:46;26.20;24.60;17.00
14880;PMS7003;7533;51.278;12.588;2022-07-30T15:51:49;26.40;24.60;17.00
14880;PMS7003;7533;51.278;12.588;2022-07-30T15:56:54;25.20;22.60;17.20
14880;PMS7003;7533;51.278;12.588;2022-07-30T16:02:02;23.80;19.80;15.60
14880;PMS7003;7533;51.278;12.588;2022-07-30T16:07:05;26.20;24.00;16.80
14880;PMS7003;7533;51.278;12.588;2022-07-30T16:12:09;25.20;22.20;15.80
14880;PMS7003;7533;51.278;12.588;2022-07-30T16:17:12;24.20;22.00;16.00
14880;PMS7003;7533;51.278;12.588;2022-07-30T16:22:16;21.40;20.60;16.00
14880;PMS7003;7533;51.278;12.588;2022-07-30T16:27:25;22.60;20.60;15.20
14880;PMS7003;7533;51.278;12.588;2022-07-30T16:32:28;23.40;21.40;15.80
14880;PMS7003;7533;51.278;12.588;2022-07-30T16:37:31;19.00;19.00;14.60
14880;PMS7003;7533;51.278;12.588;2022-07-30T16:42:35;18.60;18.00;13.40
14880;PMS7003;7533;51.278;12.588;2022-07-30T16:47:38;20.80;19.80;13.20
14880;PMS7003;7533;51.278;12.588;2022-07-30T16:52:41;18.40;16.80;12.00
14880;PMS7003;7533;51.278;12.588;2022-07-30T16:57:45;22.00;19.40;12.80
14880;PMS7003;7533;51.278;12.588;2022-07-30T17:02:48;17.40;16.00;12.20
14880;PMS7003;7533;51.278;12.588;2022-07-30T17:07:51;19.60;19.00;13.20
14880;PMS7003;7533;51.278;12.588;2022-07-30T17:12:55;20.20;17.60;13.00
14880;PMS7003;7533;51.278;12.588;2022-07-30T17:17:59;14.20;13.40;10.00
14880;PMS7003;7533;51.278;12.588;2022-07-30T17:23:02;16.60;16.00;11.00
14880;PMS7003;7533;51.278;12.588;2022-07-30T17:28:06;16.80;16.80;12.20
14880;PMS7003;7533;51.278;12.588;2022-07-30T17:33:09;18.20;17.80;11.40
14880;PMS7003;7533;51.278;12.588;2022-07-30T17:38:12;19.40;17.20;12.40
14880;PMS7003;7533;51.278;12.588;2022-07-30T17:43:16;17.80;16.40;11.80
14880;PMS7003;7533;51.278;12.588;2022-07-30T17:48:19;16.80;16.40;11.00
14880;PMS7003;7533;51.278;12.588;2022-07-30T17:53:22;15.40;15.20;11.00
14880;PMS7003;7533;51.278;12.588;2022-07-30T17:58:29;18.00;16.40;11.80
14880;PMS7003;7533;51.278;12.588;2022-07-30T18:03:32;17.80;15.40;11.00
14880;PMS7003;7533;51.278;12.588;2022-07-30T18:08:35;18.00;16.80;12.60
14880;PMS7003;7533;51.278;12.588;2022-07-30T18:13:39;16.40;15.60;11.20
14880;PMS7003;7533;51.278;12.588;2022-07-30T18:18:42;15.00;14.00;10.40
14880;PMS7003;7533;51.278;12.588;2022-07-30T18:23:45;16.40;15.40;11.00
14880;PMS7003;7533;51.278;12.588;2022-07-30T18:28:50;14.00;13.00;9.20
14880;PMS7003;7533;51.278;12.588;2022-07-30T18:33:52;15.00;13.60;9.80
14880;PMS7003;7533;51.278;12.588;2022-07-30T18:38:55;16.40;15.80;11.00
14880;PMS7003;7533;51.278;12.588;2022-07-30T18:44:00;13.80;12.20;8.80
14880;PMS7003;7533;51.278;12.588;2022-07-30T18:49:02;12.00;11.40;9.20
14880;PMS7003;7533;51.278;12.588;2022-07-30T18:54:25;15.00;12.80;8.80
14880;PMS7003;7533;51.278;12.588;2022-07-30T18:59:30;14.20;12.80;10.00
14880;PMS7003;7533;51.278;12.588;2022-07-30T19:04:33;13.60;12.60;8.80
14880;PMS7003;7533;51.278;12.588;2022-07-30T19:09:36;12.20;12.20;9.40
14880;PMS7003;7533;51.278;12.588;2022-07-30T19:14:40;12.80;12.00;8.60
14880;PMS7003;7533;51.278;12.588;2022-07-30T19:19:44;16.40;15.40;9.00
14880;PMS7003;7533;51.278;12.588;2022-07-30T19:24:47;11.20;10.20;8.60
14880;PMS7003;7533;51.278;12.588;2022-07-30T19:29:51;13.40;13.40;9.40
14880;PMS7003;7533;51.278;12.588;2022-07-30T19:34:54;12.80;11.60;8.20
14880;PMS7003;7533;51.278;12.588;2022-07-30T19:39:57;12.20;11.20;8.00
14880;PMS7003;7533;51.278;12.588;2022-07-30T19:45:09;15.40;13.40;9.80
14880;PMS7003;7533;51.278;12.588;2022-07-30T19:50:13;12.20;9.80;8.40
14880;PMS7003;7533;51.278;12.588;2022-07-30T19:55:16;15.40;14.20;10.00
14880;PMS7003;7533;51.278;12.588;2022-07-30T20:00:37;11.20;11.20;8.00
14880;PMS7003;7533;51.278;12.588;2022-07-30T20:05:40;13.20;11.60;9.20
14880;PMS7003;7533;51.278;12.588;2022-07-30T20:10:59;14.20;12.20;9.40
14880;PMS7003;7533;51.278;12.588;2022-07-30T20:16:05;13.60;11.60;9.40
14880;PMS7003;7533;51.278;12.588;2022-07-30T20:21:12;14.20;10.00;7.20
14880;PMS7003;7533;51.278;12.588;2022-07-30T20:26:17;9.00;9.00;7.00
14880;PMS7003;7533;51.278;12.588;2022-07-30T20:31:21;12.40;12.40;8.20
14880;PMS7003;7533;51.278;12.588;2022-07-30T20:36:26;11.80;11.40;9.00
14880;PMS7003;7533;51.278;12.588;2022-07-30T20:41:29;12.60;11.20;9.20
14880;PMS7003;7533;51.278;12.588;2022-07-30T20:46:33;9.80;9.00;8.00
14880;PMS7003;7533;51.278;12.588;2022-07-30T20:51:37;12.20;11.00;7.80
14880;PMS7003;7533;51.278;12.588;2022-07-30T20:56:42;12.20;11.80;8.00
14880;PMS7003;7533;51.278;12.588;2022-07-30T21:01:46;11.60;11.40;8.60
14880;PMS7003;7533;51.278;12.588;2022-07-30T21:06:51;10.60;10.60;7.80
14880;PMS7003;7533;51.278;12.588;2022-07-30T21:11:54;14.60;10.80;8.40
14880;PMS7003;7533;51.278;12.588;2022-07-30T21:16:58;11.60;11.60;8.80
14880;PMS7003;7533;51.278;12.588;2022-07-30T21:22:01;12.00;12.00;9.00
14880;PMS7003;7533;51.278;12.588;2022-07-30T21:27:05;12.00;11.80;8.00
14880;PMS7003;7533;51.278;12.588;2022-07-30T21:32:09;11.60;10.80;8.80
14880;PMS7003;7533;51.278;12.588;2022-07-30T21:37:13;12.20;12.20;9.00
14880;PMS7003;7533;51.278;12.588;2022-07-30T21:42:16;13.40;11.60;8.40
14880;PMS7003;7533;51.278;12.588;2022-07-30T21:47:40;10.40;10.40;8.60
14880;PMS7003;7533;51.278;12.588;2022-07-30T21:52:48;13.40;12.20;9.20
14880;PMS7003;7533;51.278;12.588;2022-07-30T21:57:51;12.40;12.40;9.00
14880;PMS7003;7533;51.278;12.588;2022-07-30T22:02:57;10.40;10.40;7.60
14880;PMS7003;7533;51.278;12.588;2022-07-30T22:08:00;9.50;9.00;7.00
14880;PMS7003;7533;51.278;12.588;2022-07-30T22:13:03;11.00;10.60;8.00
14880;PMS7003;7533;51.278;12.588;2022-07-30T22:18:08;11.00;11.00;8.60
14880;PMS7003;7533;51.278;12.588;2022-07-30T22:23:11;9.75;9.75;8.00
14880;PMS7003;7533;51.278;12.588;2022-07-30T22:28:14;10.50;9.00;6.75
14880;PMS7003;7533;51.278;12.588;2022-07-30T22:33:18;9.00;7.80;6.00
14880;PMS7003;7533;51.278;12.588;2022-07-30T22:38:21;8.80;8.80;6.80
14880;PMS7003;7533;51.278;12.588;2022-07-30T22:43:25;9.50;9.50;8.00
14880;PMS7003;7533;51.278;12.588;2022-07-30T22:48:42;9.50;8.25;7.00
14880;PMS7003;7533;51.278;12.588;2022-07-30T22:53:45;10.75;9.75;6.75
14880;PMS7003;7533;51.278;12.588;2022-07-30T22:59:08;10.00;9.25;7.00
14880;PMS7003;7533;51.278;12.588;2022-07-30T23:04:12;10.75;9.50;6.50
14880;PMS7003;7533;51.278;12.588;2022-07-30T23:09:15;9.50;9.50;6.75
14880;PMS7003;7533;51.278;12.588;2022-07-30T23:14:19;8.50;8.50;7.25
14880;PMS7003;7533;51.278;12.588;2022-07-30T23:19:23;10.60;10.00;7.60
14880;PMS7003;7533;51.278;12.588;2022-07-30T23:24:26;9.60;9.60;8.00
14880;PMS7003;7533;51.278;12.588;2022-07-30T23:29:28;10.25;8.25;7.00
14880;PMS7003;7533;51.278;12.588;2022-07-30T23:34:33;7.75;7.00;5.25
14880;PMS7003;7533;51.278;12.588;2022-07-30T23:39:36;9.80;8.60;6.60
14880;PMS7003;7533;51.278;12.588;2022-07-30T23:44:39;8.75;8.75;6.75
14880;PMS7003;7533;51.278;12.588;2022-07-30T23:49:43;10.00;9.20;6.60
14880;PMS7003;7533;51.278;12.588;2022-07-30T23:54:46;8.80;8.20;5.40
14880;PMS7003;7533;51.278;12.588;2022-07-30T23:59:49;9.80;8.80;6.80
